Time;durP1;ratioP1;P1;durP2;ratioP2;P2;SDS_P1;SDS_P2;PMS_P1;PMS_P2;Temp;Humidity;BMP_temperature;BMP_pressure;BME280_temperature;BME280_humidity;BME280_pressure;Samples;Min_cycle;Max_cycle;Signal;HPM_P1;HPM_P2
2023/06/15 00:00:20;;;;;;;29.65;18.88;;;;;;;16.95;100.00;99705.72;5095517;28;20070;-77
2023/06/15 00:03:07;;;;;;;33.03;19.80;;;;;;;16.92;100.00;99710.63;5113763;27;20118;-76
2023/06/15 00:05:53;;;;;;;27.38;18.42;;;;;;;16.81;100.00;99701.56;5115649;27;20050;-76
2023/06/15 00:08:37;;;;;;;22.95;18.13;;;;;;;16.85;100.00;99708.88;5108954;28;20043;-76
2023/06/15 00:11:21;;;;;;;29.00;16.98;;;;;;;16.82;100.00;99709.31;5116531;28;20038;-77
2023/06/15 00:14:10;;;;;;;24.70;18.15;;;;;;;16.81;100.00;99709.53;5110642;28;20502;-76
2023/06/15 00:16:54;;;;;;;22.67;17.88;;;;;;;16.61;100.00;99710.53;5119682;27;20504;-77
2023/06/15 00:19:39;;;;;;;30.38;18.50;;;;;;;16.55;100.00;99711.41;5117483;28;20046;-87
2023/06/15 00:22:26;;;;;;;26.45;17.70;;;;;;;16.57;100.00;99704.03;5101025;28;20402;-86
2023/06/15 00:25:10;;;;;;;27.50;17.48;;;;;;;16.68;100.00;99705.16;5119800;28;20087;-89
2023/06/15 00:27:55;;;;;;;27.58;19.92;;;;;;;16.49;100.00;99699.00;5124432;28;20042;-87
2023/06/15 00:30:39;;;;;;;24.38;16.45;;;;;;;16.56;100.00;99695.25;5120520;28;20037;-88
2023/06/15 00:33:23;;;;;;;29.52;19.10;;;;;;;16.48;100.00;99707.97;5116440;28;20070;-86
2023/06/15 00:36:10;;;;;;;;;;;;;;;16.46;100.00;99707.38;5129106;28;20034;-86
2023/06/15 00:38:56;;;;;;;24.60;18.98;;;;;;;16.40;100.00;99704.59;5122309;28;20056;-88
2023/06/15 00:41:44;;;;;;;29.10;19.00;;;;;;;16.51;100.00;99705.72;5102916;28;20089;-88
2023/06/15 00:44:29;;;;;;;27.60;19.40;;;;;;;16.53;100.00;99697.56;5119178;28;20096;-88
2023/06/15 00:47:17;;;;;;;27.63;18.48;;;;;;;16.51;100.00;99696.97;5118346;28;20035;-88
2023/06/15 00:50:01;;;;;;;26.05;17.05;;;;;;;16.52;100.00;99691.44;5125617;27;20038;-87
2023/06/15 00:52:49;;;;;;;25.50;17.38;;;;;;;16.38;100.00;99684.63;5110325;27;20391;-88
2023/06/15 00:55:37;;;;;;;27.13;20.80;;;;;;;16.18;100.00;99690.09;5113977;27;20046;-86
2023/06/15 00:58:24;;;;;;;24.80;18.25;;;;;;;16.13;100.00;99694.22;5111642;27;20050;-88
2023/06/15 01:01:08;;;;;;;27.50;18.23;;;;;;;16.22;100.00;99696.56;5118510;27;20093;-89
2023/06/15 01:03:54;;;;;;;27.27;17.88;;;;;;;16.45;100.00;99703.13;5109594;27;20066;-89
2023/06/15 01:06:42;;;;;;;22.83;16.75;;;;;;;16.49;100.00;99694.53;5096046;27;20125;-89
2023/06/15 01:09:26;;;;;;;25.30;17.05;;;;;;;16.70;100.00;99697.81;5121678;27;20606;-86
2023/06/15 01:12:14;;;;;;;22.48;16.35;;;;;;;16.74;100.00;99698.19;5126020;27;20151;-88
2023/06/15 01:14:58;;;;;;;23.85;14.98;;;;;;;17.03;100.00;99693.22;5123999;27;20042;-88
2023/06/15 01:17:45;;;;;;;21.70;16.38;;;;;;;17.06;100.00;99698.06;5121289;27;20084;-87
2023/06/15 01:20:39;;;;;;;28.40;17.45;;;;;;;17.07;100.00;99697.03;5125063;27;20038;-85
2023/06/15 01:23:43;;;;;;;30.38;19.85;;;;;;;16.96;100.00;99694.06;5122320;27;20058;-86
2023/06/15 01:26:29;;;;;;;28.08;18.98;;;;;;;16.92;100.00;99684.94;5122343;27;20063;-86
2023/06/15 01:29:16;;;;;;;34.08;21.27;;;;;;;17.19;100.00;99689.97;5122272;27;20069;-86
2023/06/15 01:32:04;;;;;;;31.48;20.35;;;;;;;16.98;100.00;99684.09;5123692;27;20396;-87
2023/06/15 01:34:49;;;;;;;40.55;20.60;;;;;;;16.90;100.00;99697.63;5120330;27;20529;-88
2023/06/15 01:37:33;;;;;;;35.85;23.58;;;;;;;16.84;100.00;99687.88;5121092;27;20035;-84
2023/06/15 01:40:19;;;;;;;31.52;20.98;;;;;;;16.86;100.00;99685.81;5122531;27;20037;-86
2023/06/15 01:43:11;;;;;;;36.78;22.60;;;;;;;16.90;100.00;99702.91;5107250;27;20398;-83
2023/06/15 01:45:56;;;;;;;31.92;20.90;;;;;;;16.85;100.00;99697.44;5122572;27;20381;-83
2023/06/15 01:48:45;;;;;;;41.17;24.50;;;;;;;16.77;100.00;99697.75;5123811;27;20042;-84
2023/06/15 01:51:30;;;;;;;48.88;24.10;;;;;;;16.81;100.00;99691.78;5120991;27;20092;-84
2023/06/15 01:54:14;;;;;;;45.30;26.67;;;;;;;16.61;100.00;99691.97;5120745;27;20083;-87
2023/06/15 01:57:01;;;;;;;46.80;27.13;;;;;;;16.66;100.00;99693.97;5121462;27;20046;-85
2023/06/15 01:59:45;;;;;;;42.88;25.15;;;;;;;16.78;100.00;99684.25;5106453;27;20062;-86
2023/06/15 02:02:31;;;;;;;43.03;25.73;;;;;;;16.76;100.00;99693.47;5108660;27;20097;-85
2023/06/15 02:05:15;;;;;;;52.72;29.02;;;;;;;16.60;100.00;99711.56;5121860;27;20050;-84
2023/06/15 02:07:59;;;;;;;52.47;29.92;;;;;;;16.97;100.00;99697.53;5117534;27;20088;-85
2023/06/15 02:10:43;;;;;;;46.58;26.52;;;;;;;17.14;100.00;99697.78;5123774;27;20046;-87
2023/06/15 02:13:27;;;;;;;42.30;26.38;;;;;;;16.96;100.00;99706.50;5123879;27;20107;-87
2023/06/15 02:16:11;;;;;;;46.65;27.70;;;;;;;16.69;100.00;99702.28;5127730;27;20090;-87
2023/06/15 02:18:55;;;;;;;52.50;26.63;;;;;;;16.98;100.00;99701.78;5121038;27;20045;-87
2023/06/15 02:21:40;;;;;;;;;;;;;;;17.03;100.00;99714.44;5122162;27;20092;-87
2023/06/15 02:24:24;;;;;;;52.22;25.95;;;;;;;16.97;100.00;99711.59;5121574;27;19919;-87
2023/06/15 02:27:09;;;;;;;51.58;28.33;;;;;;;16.95;100.00;99711.03;5117282;27;20504;-86
2023/06/15 02:29:55;;;;;;;55.65;30.60;;;;;;;16.81;100.00;99714.81;5119153;27;20164;-85
2023/06/15 02:32:42;;;;;;;53.97;30.20;;;;;;;16.83;100.00;99705.63;5123430;27;20095;-85
2023/06/15 02:35:26;;;;;;;59.47;29.52;;;;;;;17.03;100.00;99709.94;5102722;27;20050;-85
2023/06/15 02:38:10;;;;;;;61.15;29.98;;;;;;;16.73;100.00;99707.16;5102577;27;20084;-86
2023/06/15 02:40:55;;;;;;;59.55;31.33;;;;;;;16.60;100.00;99698.31;5107909;27;20137;-85
2023/06/15 02:43:39;;;;;;;53.17;27.80;;;;;;;16.91;100.00;99703.72;5121141;27;20397;-84
2023/06/15 02:46:23;;;;;;;60.45;29.30;;;;;;;16.67;100.00;99699.03;5123078;27;20530;-86
2023/06/15 02:49:08;;;;;;;57.92;30.48;;;;;;;16.82;100.00;99719.09;5126744;27;20061;-86
2023/06/15 02:51:52;;;;;;;57.35;29.80;;;;;;;16.80;100.00;99716.69;5119178;27;21425;-87
2023/06/15 02:54:36;;;;;;;49.00;28.17;;;;;;;16.91;100.00;99704.53;5124565;27;20042;-86
2023/06/15 02:57:20;;;;;;;68.45;31.45;;;;;;;16.84;100.00;99704.59;5123888;27;20514;-88
2023/06/15 03:00:05;;;;;;;73.05;32.63;;;;;;;16.51;100.00;99699.63;5123027;27;20058;-86
2023/06/15 03:02:52;;;;;;;65.45;32.50;;;;;;;16.66;100.00;99708.03;5108615;27;20512;-85
2023/06/15 03:05:40;;;;;;;61.47;32.35;;;;;;;16.84;100.00;99703.78;5122083;27;20104;-87
2023/06/15 03:08:31;;;;;;;61.45;31.55;;;;;;;16.89;100.00;99711.88;5123784;27;20043;-84
2023/06/15 03:11:15;;;;;;;62.75;31.65;;;;;;;16.90;100.00;99712.72;5120359;27;20520;-87
2023/06/15 03:14:00;;;;;;;57.85;32.30;;;;;;;16.83;100.00;99692.38;5122181;27;20039;-86
2023/06/15 03:16:46;;;;;;;53.83;29.80;;;;;;;17.01;100.00;99708.53;5122263;27;20462;-88
2023/06/15 03:19:30;;;;;;;64.03;33.47;;;;;;;16.77;100.00;99713.66;5099981;27;20110;-87
2023/06/15 03:22:15;;;;;;;61.03;33.75;;;;;;;16.66;100.00;99707.22;5123648;27;20058;-87
2023/06/15 03:25:00;;;;;;;65.65;31.42;;;;;;;16.80;100.00;99699.94;5122245;27;20078;-88
2023/06/15 03:27:48;;;;;;;59.17;34.15;;;;;;;16.82;100.00;99706.66;5118753;27;20074;-88
2023/06/15 03:30:35;;;;;;;67.50;35.22;;;;;;;16.85;100.00;99700.09;5124719;27;20038;-88
2023/06/15 03:33:21;;;;;;;67.40;35.13;;;;;;;16.67;100.00;99704.34;5126440;27;20493;-88
2023/06/15 03:36:05;;;;;;;60.40;33.17;;;;;;;16.71;100.00;99694.13;5123760;28;20118;-88
2023/06/15 03:38:49;;;;;;;65.35;35.50;;;;;;;16.45;100.00;99719.00;5123141;28;20087;-89
2023/06/15 03:41:34;;;;;;;58.42;34.10;;;;;;;16.77;100.00;99714.44;5119398;28;20051;-87
2023/06/15 03:44:20;;;;;;;64.80;33.65;;;;;;;16.95;100.00;99705.72;5108730;28;20069;-88
2023/06/15 03:47:05;;;;;;;63.35;34.58;;;;;;;16.85;100.00;99710.69;5118824;28;20083;-86
2023/06/15 03:49:49;;;;;;;65.13;35.38;;;;;;;16.39;100.00;99707.44;5120929;28;20451;-87
2023/06/15 03:52:33;;;;;;;62.72;33.85;;;;;;;16.72;100.00;99702.91;5123793;28;20092;-87
2023/06/15 03:55:18;;;;;;;71.03;36.13;;;;;;;16.35;100.00;99712.38;5104162;28;20088;-87
2023/06/15 03:58:01;;;;;;;;;;;;;;;16.66;100.00;99710.69;5122384;28;20119;-88
2023/06/15 04:00:45;;;;;;;59.03;34.25;;;;;;;16.81;100.00;99714.81;5103696;28;19923;-88
2023/06/15 04:03:29;;;;;;;68.53;36.22;;;;;;;16.76;100.00;99710.19;5124536;28;20545;-88
2023/06/15 04:06:16;;;;;;;67.82;37.03;;;;;;;16.72;100.00;99716.16;5118684;28;20512;-88
2023/06/15 04:09:00;;;;;;;56.80;34.42;;;;;;;16.92;100.00;99716.78;5108205;28;20046;-87
2023/06/15 04:11:44;;;;;;;67.30;36.13;;;;;;;16.59;100.00;99703.81;5116346;28;20042;-88
2023/06/15 04:14:30;;;;;;;66.07;35.35;;;;;;;16.53;100.00;99708.16;5122350;28;20058;-87
2023/06/15 04:17:15;;;;;;;61.58;35.42;;;;;;;16.95;100.00;99716.31;5123599;28;20043;-88
2023/06/15 04:19:59;;;;;;;63.17;36.63;;;;;;;16.73;100.00;99718.56;5122923;28;20079;-88
2023/06/15 04:22:42;;;;;;;65.15;34.90;;;;;;;17.10;100.00;99712.53;5108187;28;20565;-86
2023/06/15 04:25:28;;;;;;;63.45;35.53;;;;;;;16.99;100.00;99709.56;5126058;27;20091;-86
2023/06/15 04:28:12;;;;;;;62.42;34.05;;;;;;;16.76;100.00;99714.69;5124640;27;20087;-87
2023/06/15 04:31:10;;;;;;;69.47;38.53;;;;;;;16.65;100.00;99721.50;5128083;27;20042;-86
2023/06/15 04:33:59;;;;;;;67.10;38.08;;;;;;;16.79;100.00;99727.50;5126381;27;20054;-86
2023/06/15 04:36:44;;;;;;;62.63;35.20;;;;;;;17.06;100.00;99732.56;5127938;27;20385;-86
2023/06/15 04:39:28;;;;;;;62.05;34.88;;;;;;;16.90;100.00;99723.31;5123778;27;20046;-86
2023/06/15 04:42:12;;;;;;;59.70;34.10;;;;;;;17.12;100.00;99721.88;5124575;27;20042;-87
2023/06/15 04:44:56;;;;;;;63.53;34.15;;;;;;;17.18;100.00;99728.16;5119882;27;20123;-87
2023/06/15 04:47:42;;;;;;;62.38;35.38;;;;;;;16.59;100.00;99730.31;5128234;27;20396;-85
2023/06/15 04:50:26;;;;;;;63.38;36.40;;;;;;;16.27;100.00;99725.88;5109324;27;20042;-84
2023/06/15 04:53:11;;;;;;;60.22;34.67;;;;;;;16.85;100.00;99710.69;5091131;27;20074;-85
2023/06/15 04:55:56;;;;;;;58.13;34.55;;;;;;;16.98;100.00;99731.81;5109058;27;20119;-86
2023/06/15 04:58:40;;;;;;;58.60;33.85;;;;;;;16.95;100.00;99732.22;5122877;27;20116;-85
2023/06/15 05:01:24;;;;;;;58.05;34.30;;;;;;;17.12;100.00;99731.69;5119765;27;20054;-88
2023/06/15 05:04:08;;;;;;;56.97;33.22;;;;;;;16.99;100.00;99728.13;5122207;27;20046;-88
2023/06/15 05:06:52;;;;;;;59.55;35.75;;;;;;;17.04;100.00;99731.97;5122379;27;20461;-87
2023/06/15 05:09:36;;;;;;;60.78;36.22;;;;;;;16.58;100.00;99718.91;5113848;27;20094;-84
2023/06/15 05:12:20;;;;;;;63.10;33.90;;;;;;;17.04;100.00;99734.63;5124095;27;20062;-86
2023/06/15 05:15:05;;;;;;;65.35;36.53;;;;;;;17.11;100.00;99730.88;5122774;27;20153;-86
2023/06/15 05:17:49;;;;;;;60.30;33.85;;;;;;;17.27;100.00;99733.97;5124745;27;20054;-86
2023/06/15 05:20:33;;;;;;;55.58;34.10;;;;;;;17.44;100.00;99739.47;5121050;27;20049;-86
2023/06/15 05:23:20;;;;;;;57.20;33.13;;;;;;;17.47;100.00;99731.06;5105239;27;20157;-86
2023/06/15 05:26:04;;;;;;;58.63;36.28;;;;;;;17.24;100.00;99740.53;5122486;27;20054;-88
2023/06/15 05:28:48;;;;;;;66.07;35.13;;;;;;;16.87;100.00;99729.84;5124443;27;20053;-85
2023/06/15 05:31:33;;;;;;;62.97;35.17;;;;;;;17.42;100.00;99744.19;5125518;27;20405;-88
2023/06/15 05:34:17;;;;;;;52.78;32.05;;;;;;;18.00;100.00;99739.38;5119171;27;20038;-87
2023/06/15 05:37:02;;;;;;;66.40;34.85;;;;;;;17.95;100.00;99739.25;5106960;27;20497;-89
2023/06/15 05:39:46;;;;;;;58.15;32.78;;;;;;;18.34;100.00;99736.25;5121862;27;20507;-88
2023/06/15 05:42:30;;;;;;;70.32;36.08;;;;;;;18.42;100.00;99731.41;5108779;27;20496;-88
2023/06/15 05:45:14;;;;;;;59.67;35.15;;;;;;;18.39;100.00;99731.06;5124882;27;20581;-88
2023/06/15 05:47:57;;;;;;;58.40;33.22;;;;;;;18.61;100.00;99736.63;5125427;27;20062;-84
2023/06/15 05:50:41;;;;;;;62.60;37.42;;;;;;;17.31;100.00;99734.34;5120752;27;20111;-87
2023/06/15 05:53:25;;;;;;;61.53;34.95;;;;;;;17.47;100.00;99728.41;5106897;27;20041;-87
2023/06/15 05:56:09;;;;;;;62.30;36.47;;;;;;;18.01;100.00;99724.25;5121598;27;20092;-87
2023/06/15 05:58:54;;;;;;;66.10;34.47;;;;;;;18.10;100.00;99726.41;5123870;27;20054;-87
2023/06/15 06:01:38;;;;;;;58.30;34.70;;;;;;;17.97;100.00;99731.88;5123798;27;20523;-88
2023/06/15 06:04:22;;;;;;;57.42;35.65;;;;;;;17.54;100.00;99723.84;5124298;27;20050;-87
2023/06/15 06:07:06;;;;;;;;;;;;;;;17.61;100.00;99736.22;5105693;27;20042;-85
2023/06/15 06:09:50;;;;;;;64.25;34.78;;;;;;;18.33;100.00;99735.44;5125286;27;19961;-87
2023/06/15 06:12:34;;;;;;;68.10;37.60;;;;;;;18.37;100.00;99736.59;5122098;27;20038;-86
2023/06/15 06:15:18;;;;;;;66.03;38.17;;;;;;;18.47;100.00;99730.72;5118503;27;20168;-86
2023/06/15 06:18:04;;;;;;;71.45;40.75;;;;;;;18.63;100.00;99744.38;5122294;27;20548;-87
2023/06/15 06:20:48;;;;;;;69.57;38.60;;;;;;;18.77;100.00;99743.13;5120893;27;20050;-87
2023/06/15 06:23:34;;;;;;;78.00;41.13;;;;;;;19.01;100.00;99739.66;5123122;27;20499;-83
2023/06/15 06:26:18;;;;;;;70.22;38.78;;;;;;;19.30;100.00;99737.06;5110632;27;20110;-85
2023/06/15 06:29:03;;;;;;;60.97;37.65;;;;;;;18.87;100.00;99737.22;5120268;27;20081;-84
2023/06/15 06:31:47;;;;;;;61.38;36.22;;;;;;;19.50;100.00;99753.47;5117014;27;20034;-82
2023/06/15 06:34:31;;;;;;;61.78;34.40;;;;;;;19.10;100.00;99746.25;5101524;27;20062;-83
2023/06/15 06:37:16;;;;;;;64.35;37.67;;;;;;;18.45;100.00;99743.44;5118976;27;20045;-82
2023/06/15 06:40:00;;;;;;;58.08;36.03;;;;;;;18.83;100.00;99755.47;5103761;28;20084;-81
2023/06/15 06:42:44;;;;;;;63.47;37.05;;;;;;;18.81;100.00;99754.09;5122518;27;20446;-84
2023/06/15 06:45:28;;;;;;;64.28;34.78;;;;;;;19.01;100.00;99744.97;5117133;27;20070;-84
2023/06/15 06:48:12;;;;;;;61.20;34.13;;;;;;;18.93;100.00;99754.91;5122337;27;20046;-81
2023/06/15 06:50:57;;;;;;;66.35;36.40;;;;;;;18.72;100.00;99748.31;5115632;27;20516;-85
2023/06/15 06:53:41;;;;;;;57.03;33.63;;;;;;;18.90;100.00;99755.38;5104378;27;20051;-85
2023/06/15 06:56:26;;;;;;;57.70;33.13;;;;;;;18.80;100.00;99752.47;5108468;27;20091;-84
2023/06/15 06:59:10;;;;;;;57.33;33.85;;;;;;;18.84;100.00;99751.78;5119576;27;20446;-86
2023/06/15 07:01:54;;;;;;;59.83;34.78;;;;;;;18.74;100.00;99758.72;5122198;27;20049;-86
2023/06/15 07:04:39;;;;;;;59.47;33.67;;;;;;;18.54;100.00;99759.88;5119152;27;20088;-83
2023/06/15 07:07:25;;;;;;;60.45;34.15;;;;;;;18.63;100.00;99761.13;5114472;27;20231;-86
2023/06/15 07:10:09;;;;;;;62.83;35.33;;;;;;;18.55;100.00;99754.31;5111445;27;20160;-76
2023/06/15 07:12:55;;;;;;;65.55;36.97;;;;;;;18.64;100.00;99761.94;5111844;27;20092;-77
2023/06/15 07:15:39;;;;;;;67.00;36.92;;;;;;;18.55;100.00;99759.63;5096643;28;20047;-75
2023/06/15 07:18:25;;;;;;;57.67;36.28;;;;;;;18.44;100.00;99762.25;5106261;27;20483;-75
2023/06/15 07:21:09;;;;;;;61.63;34.42;;;;;;;18.54;100.00;99767.84;5111808;27;20074;-76
2023/06/15 07:23:53;;;;;;;61.55;35.38;;;;;;;18.83;100.00;99759.97;5108299;27;20047;-78
2023/06/15 07:26:37;;;;;;;58.35;33.97;;;;;;;18.79;100.00;99766.81;5113419;27;20093;-76
2023/06/15 07:29:21;;;;;;;56.63;33.70;;;;;;;18.90;100.00;99757.22;5118306;28;20555;-76
2023/06/15 07:32:05;;;;;;;53.65;31.08;;;;;;;19.07;100.00;99765.34;5110598;27;20043;-78
2023/06/15 07:34:49;;;;;;;60.10;33.65;;;;;;;18.93;100.00;99770.88;5114371;27;20049;-80
2023/06/15 07:37:33;;;;;;;56.75;31.00;;;;;;;19.06;100.00;99755.72;5115259;27;20107;-79
2023/06/15 07:40:17;;;;;;;52.60;30.13;;;;;;;18.66;100.00;99760.66;5115493;28;20377;-79
2023/06/15 07:43:02;;;;;;;51.13;29.63;;;;;;;18.87;100.00;99760.34;5117594;28;20043;-79
2023/06/15 07:45:46;;;;;;;51.78;30.15;;;;;;;18.81;100.00;99762.06;5110145;28;20046;-78
2023/06/15 07:48:30;;;;;;;44.40;28.67;;;;;;;18.89;100.00;99756.41;5116903;28;20034;-78
2023/06/15 07:51:14;;;;;;;45.08;26.33;;;;;;;19.02;100.00;99763.38;5123018;28;20037;-78
2023/06/15 07:53:59;;;;;;;44.47;26.73;;;;;;;19.02;100.00;99765.22;5113878;28;20042;-79
2023/06/15 07:56:45;;;;;;;41.47;26.30;;;;;;;19.12;100.00;99768.09;5117884;28;20039;-79
2023/06/15 07:59:29;;;;;;;48.33;27.58;;;;;;;19.46;100.00;99765.63;5125324;27;20058;-79
2023/06/15 08:02:13;;;;;;;40.58;24.98;;;;;;;19.51;100.00;99770.22;5130945;27;20058;-79
2023/06/15 08:04:57;;;;;;;37.90;22.90;;;;;;;19.74;100.00;99764.03;5129238;27;20062;-79
2023/06/15 08:07:42;;;;;;;39.35;25.02;;;;;;;19.62;100.00;99757.91;5120448;27;20046;-77
2023/06/15 08:10:26;;;;;;;36.55;22.13;;;;;;;19.75;100.00;99760.31;5125685;27;20550;-77
2023/06/15 08:13:10;;;;;;;36.67;21.55;;;;;;;19.77;100.00;99763.53;5124127;27;20037;-77
2023/06/15 08:15:54;;;;;;;41.25;24.35;;;;;;;19.54;100.00;99754.59;5112547;27;20487;-79
2023/06/15 08:18:38;;;;;;;35.10;22.08;;;;;;;19.89;100.00;99754.72;5114894;27;20034;-79
2023/06/15 08:21:22;;;;;;;29.92;20.05;;;;;;;19.86;100.00;99755.97;5104925;27;20042;-79
2023/06/15 08:24:06;;;;;;;38.28;22.25;;;;;;;19.89;100.00;99755.50;5121091;27;20119;-79
2023/06/15 08:26:50;;;;;;;30.35;20.00;;;;;;;20.10;100.00;99748.72;5101675;28;20092;-78
2023/06/15 08:29:34;;;;;;;30.83;20.23;;;;;;;19.70;100.00;99762.88;5127025;27;20050;-78
2023/06/15 08:32:18;;;;;;;29.27;19.88;;;;;;;20.08;100.00;99758.81;5103522;27;20452;-79
2023/06/15 08:35:03;;;;;;;29.52;16.85;;;;;;;20.14;100.00;99762.34;5114355;27;20045;-79
2023/06/15 08:37:47;;;;;;;31.95;19.20;;;;;;;19.96;100.00;99758.06;5109111;27;20172;-80
2023/06/15 08:40:31;;;;;;;26.20;17.08;;;;;;;20.22;100.00;99758.50;5117882;27;20080;-78
2023/06/15 08:43:16;;;;;;;29.80;17.08;;;;;;;20.27;100.00;99763.94;5118835;27;20096;-80
2023/06/15 08:46:03;;;;;;;29.13;16.92;;;;;;;20.46;100.00;99769.03;5104638;27;20159;-80
2023/06/15 08:48:50;;;;;;;25.40;15.68;;;;;;;20.72;100.00;99761.41;5112799;27;20545;-79
2023/06/15 08:51:36;;;;;;;24.23;16.85;;;;;;;20.82;99.55;99762.41;5123056;27;20042;-80
2023/06/15 08:54:22;;;;;;;23.98;17.40;;;;;;;20.98;99.62;99755.41;5122079;27;20055;-81
2023/06/15 08:57:06;;;;;;;25.60;15.93;;;;;;;21.13;98.08;99751.34;5114789;27;20508;-79
2023/06/15 08:59:51;;;;;;;26.48;14.77;;;;;;;21.02;96.26;99760.25;5123079;27;20078;-79
2023/06/15 09:02:40;;;;;;;20.45;12.45;;;;;;;21.38;95.18;99753.53;5122633;27;20053;-78
2023/06/15 09:05:26;;;;;;;20.50;14.43;;;;;;;21.46;96.47;99759.47;5115550;27;20401;-80
2023/06/15 09:08:10;;;;;;;26.00;14.90;;;;;;;21.36;94.66;99749.47;5124164;27;20507;-81
2023/06/15 09:11:08;;;;;;;23.42;14.93;;;;;;;21.43;94.92;99755.47;5130453;27;20173;-81
2023/06/15 09:13:55;;;;;;;27.17;16.25;;;;;;;21.32;93.67;99756.38;5120562;27;20038;-81
2023/06/15 09:16:39;;;;;;;25.83;17.00;;;;;;;21.55;93.53;99756.13;5115007;27;20039;-79
2023/06/15 09:19:23;;;;;;;23.08;14.68;;;;;;;21.40;92.87;99751.41;5119416;27;20126;-80
2023/06/15 09:22:08;;;;;;;25.75;16.13;;;;;;;21.52;92.55;99761.97;5113420;27;20034;-80
2023/06/15 09:24:52;;;;;;;32.20;17.25;;;;;;;21.55;93.32;99763.34;5112226;27;20042;-80
2023/06/15 09:27:36;;;;;;;30.02;17.17;;;;;;;21.72;93.22;99757.94;5112311;28;20108;-80
2023/06/15 09:30:21;;;;;;;27.25;16.48;;;;;;;22.08;93.82;99760.16;5122975;27;20097;-81
2023/06/15 09:33:14;;;;;;;24.15;16.33;;;;;;;21.54;90.65;99757.19;5121625;27;20095;-80
2023/06/15 09:36:00;;;;;;;22.75;15.95;;;;;;;22.01;91.59;99763.06;5110368;27;20062;-80
2023/06/15 09:38:44;;;;;;;23.48;15.30;;;;;;;22.15;89.75;99755.41;5100325;28;20041;-79
2023/06/15 09:41:28;;;;;;;27.55;16.40;;;;;;;22.10;89.52;99753.50;5118239;27;20101;-81
2023/06/15 09:44:13;;;;;;;20.55;14.88;;;;;;;22.31;89.21;99748.31;5118855;27;20073;-80
2023/06/15 09:46:58;;;;;;;25.02;16.60;;;;;;;22.31;89.28;99753.66;5102029;27;20104;-80
2023/06/15 09:49:44;;;;;;;27.17;16.42;;;;;;;22.20;88.57;99742.09;5120461;27;20113;-79
2023/06/15 09:52:30;;;;;;;25.17;15.57;;;;;;;22.56;88.28;99728.19;5111631;27;20099;-80
2023/06/15 09:55:15;;;;;;;23.38;17.13;;;;;;;22.58;87.77;99744.78;5123640;27;20061;-80
2023/06/15 09:57:59;;;;;;;22.45;15.65;;;;;;;22.72;90.43;99739.00;5116314;27;20069;-80
2023/06/15 10:00:43;;;;;;;23.27;14.98;;;;;;;22.75;87.59;99736.63;5120717;27;20042;-80
2023/06/15 10:03:30;;;;;;;22.67;14.32;;;;;;;23.08;85.56;99744.56;5120611;27;20058;-80
2023/06/15 10:06:16;;;;;;;29.25;16.52;;;;;;;22.61;86.33;99741.63;5124242;27;20103;-80
2023/06/15 10:09:04;;;;;;;22.70;15.65;;;;;;;22.99;86.40;99741.56;5115546;27;20047;-80
2023/06/15 10:11:50;;;;;;;24.48;16.15;;;;;;;22.94;86.54;99753.06;5122329;27;20054;-78
2023/06/15 10:14:43;;;;;;;20.98;14.73;;;;;;;22.85;85.50;99743.91;5121324;27;20380;-78
2023/06/15 10:17:34;;;;;;;24.67;15.35;;;;;;;23.01;84.75;99754.72;5114433;27;20050;-78
2023/06/15 10:20:23;;;;;;;21.38;14.77;;;;;;;22.87;84.33;99727.56;5118877;27;20541;-78
2023/06/15 10:23:14;;;;;;;18.02;13.25;;;;;;;22.88;84.15;99743.38;5117382;27;20112;-78
2023/06/15 10:25:58;;;;;;;20.30;13.65;;;;;;;22.50;85.09;99745.28;5102981;27;20144;-79
2023/06/15 10:28:47;;;;;;;18.90;12.07;;;;;;;23.09;85.85;99740.81;5113949;27;20038;-77
2023/06/15 10:31:45;;;;;;;17.38;10.95;;;;;;;23.50;84.94;99738.31;5125893;27;20058;-78
2023/06/15 10:34:45;;;;;;;15.60;10.98;;;;;;;23.81;82.40;99735.72;5113769;27;20038;-78
2023/06/15 10:37:48;;;;;;;15.43;11.10;;;;;;;23.96;84.03;99739.47;5120296;27;20077;-76
2023/06/15 10:40:41;;;;;;;13.80;11.27;;;;;;;24.21;83.13;99737.94;5115188;27;20042;-79
2023/06/15 10:43:29;;;;;;;16.27;11.45;;;;;;;24.10;82.40;99737.91;5115020;27;20045;-78
2023/06/15 10:46:29;;;;;;;15.60;12.07;;;;;;;23.60;81.60;99731.41;5119789;27;20171;-77
2023/06/15 10:49:14;;;;;;;16.95;11.80;;;;;;;23.95;82.04;99729.81;5113024;27;20038;-79
2023/06/15 10:51:58;;;;;;;17.92;12.60;;;;;;;24.33;80.82;99727.72;5100671;27;20081;-78
2023/06/15 10:54:43;;;;;;;18.25;13.13;;;;;;;24.32;81.12;99728.78;5117528;27;20506;-78
2023/06/15 10:57:28;;;;;;;17.10;11.30;;;;;;;24.42;83.36;99722.63;5115876;27;20520;-79
2023/06/15 11:00:23;;;;;;;17.30;10.55;;;;;;;24.56;80.78;99725.53;5103686;27;20043;-77
2023/06/15 11:03:26;;;;;;;16.52;10.50;;;;;;;24.38;79.03;99719.69;5117708;27;20050;-78
2023/06/15 11:06:15;;;;;;;12.35;9.82;;;;;;;24.30;78.71;99730.16;5100295;28;20059;-79
2023/06/15 11:09:02;;;;;;;13.93;9.52;;;;;;;24.70;77.77;99717.75;5121372;27;20046;-78
2023/06/15 11:11:46;;;;;;;12.50;9.00;;;;;;;24.70;77.75;99722.31;5119350;27;20088;-78
2023/06/15 11:14:31;;;;;;;12.02;7.30;;;;;;;24.94;75.98;99723.31;5127118;27;20042;-79
2023/06/15 11:17:20;;;;;;;10.75;8.77;;;;;;;25.24;76.43;99715.44;5111239;27;20153;-78
2023/06/15 11:20:08;;;;;;;15.45;8.05;;;;;;;25.23;76.04;99725.38;5102176;27;20434;-78
2023/06/15 11:22:53;;;;;;;9.95;8.77;;;;;;;25.34;74.16;99723.44;5119445;27;20114;-78
2023/06/15 11:25:45;;;;;;;10.02;8.40;;;;;;;25.24;73.22;99712.72;5122608;27;20503;-78
2023/06/15 11:28:33;;;;;;;17.00;8.52;;;;;;;24.89;73.99;99715.31;5124523;27;20035;-78
2023/06/15 11:31:20;;;;;;;12.27;8.68;;;;;;;24.99;75.04;99713.66;5119844;27;20045;-78
2023/06/15 11:34:04;;;;;;;12.10;8.93;;;;;;;24.85;74.79;99694.63;5124696;27;20087;-78
2023/06/15 11:36:49;;;;;;;15.35;8.18;;;;;;;25.39;73.35;99706.50;5122054;27;20118;-78
2023/06/15 11:39:33;;;;;;;9.20;7.20;;;;;;;26.20;72.00;99703.53;5117794;27;20134;-78
2023/06/15 11:42:20;;;;;;;9.77;7.93;;;;;;;26.50;70.45;99706.22;5113946;28;20458;-78
2023/06/15 11:45:04;;;;;;;17.55;9.13;;;;;;;26.36;69.99;99706.91;5121934;28;20043;-78
2023/06/15 11:47:48;;;;;;;11.20;6.50;;;;;;;26.54;69.50;99696.53;5120080;28;20043;-79
2023/06/15 11:50:32;;;;;;;12.30;7.57;;;;;;;26.87;68.58;99702.09;5124570;28;20049;-80
2023/06/15 11:53:16;;;;;;;9.60;7.70;;;;;;;27.16;68.65;99701.22;5119117;27;20044;-78
2023/06/15 11:56:01;;;;;;;13.13;8.88;;;;;;;26.50;65.46;99695.47;5122039;28;20047;-79
2023/06/15 11:58:48;;;;;;;9.20;8.23;;;;;;;26.92;67.00;99691.28;5118342;28;20112;-79
2023/06/15 12:01:35;;;;;;;13.77;7.95;;;;;;;26.80;68.43;99698.91;5122719;28;20063;-78
2023/06/15 12:04:21;;;;;;;12.50;8.13;;;;;;;26.60;68.15;99689.97;5113528;28;20043;-79
2023/06/15 12:07:06;;;;;;;10.38;7.78;;;;;;;26.79;68.52;99691.94;5108771;28;20112;-78
2023/06/15 12:09:52;;;;;;;13.15;8.45;;;;;;;26.36;70.90;99695.34;5113022;27;20088;-79
2023/06/15 12:12:36;;;;;;;12.32;8.57;;;;;;;26.15;69.52;99694.72;5115971;28;20064;-78
2023/06/15 12:15:21;;;;;;;11.13;8.20;;;;;;;26.04;69.34;99693.97;5124800;27;20440;-79
2023/06/15 12:18:07;;;;;;;9.32;7.60;;;;;;;26.45;68.21;99687.44;5109369;28;20108;-79
2023/06/15 12:20:51;;;;;;;10.52;7.25;;;;;;;27.08;68.53;99688.38;5098592;28;20074;-79
2023/06/15 12:23:35;;;;;;;8.88;6.65;;;;;;;27.47;67.95;99687.31;5107104;28;22456;-79
2023/06/15 12:26:22;;;;;;;9.35;7.25;;;;;;;27.87;64.68;99688.88;5119328;27;20062;-79
2023/06/15 12:29:14;;;;;;;10.15;7.72;;;;;;;28.03;65.61;99679.44;5119135;27;20088;-79
2023/06/15 12:31:59;;;;;;;8.73;7.43;;;;;;;27.96;64.83;99673.66;5112628;28;20043;-79
2023/06/15 12:34:42;;;;;;;11.07;7.30;;;;;;;28.26;65.34;99671.53;5110912;28;20408;-78
2023/06/15 12:37:28;;;;;;;10.57;7.65;;;;;;;28.17;63.72;99670.63;5111182;28;20046;-78